createdAt,value
2017-04-26T00:00:10.603Z,-1.11
2017-04-26T00:01:10.583Z,-1.18
2017-04-26T00:02:09.963Z,-1.18
2017-04-26T00:03:10.553Z,-1.1
2017-04-26T00:04:10.235Z,-1.08
2017-04-26T00:05:10.518Z,-1.05
2017-04-26T00:06:09.901Z,-1.13
2017-04-26T00:07:10.483Z,-1.23
2017-04-26T00:08:10.465Z,-1.21
2017-04-26T00:09:10.448Z,-1.14
2017-04-26T00:10:10.430Z,-1.1
2017-04-26T00:11:10.114Z,-1.05
2017-04-26T00:12:10.092Z,-1.03
2017-04-26T00:13:10.277Z,-1.07
2017-04-26T00:14:10.359Z,-0.97
2017-04-26T00:15:10.041Z,-0.97
2017-04-26T00:16:10.321Z,-1.13
2017-04-26T00:17:23.694Z,-1.2
2017-04-26T00:18:10.296Z,-1.17
2017-04-26T00:19:10.287Z,-1.25
2017-04-26T00:20:10.255Z,-1.23
2017-04-26T00:21:10.235Z,-1.13
2017-04-26T00:22:10.220Z,-1.21
2017-04-26T00:23:10.200Z,-1.11
2017-04-26T00:24:10.188Z,-1.11
2017-04-26T00:25:09.864Z,-1.15
2017-04-26T00:26:10.148Z,-1.11
2017-04-26T00:27:09.837Z,-1.08
2017-04-26T00:28:09.512Z,-1.05
2017-04-26T00:29:10.098Z,-1.07
2017-04-26T00:30:10.076Z,-1.11
2017-04-26T00:31:10.062Z,-1.08
2017-04-26T00:32:09.749Z,-0.92
2017-04-26T00:33:10.027Z,-0.9
2017-04-26T00:34:10.009Z,-0.97
2017-04-26T00:35:09.688Z,-0.93
2017-04-26T00:36:09.971Z,-1.11
2017-04-26T00:37:09.966Z,-1.21
2017-04-26T00:38:09.634Z,-1.17
2017-04-26T00:39:09.924Z,-1.13
2017-04-26T00:40:09.599Z,-1.2
2017-04-26T00:41:09.892Z,-1.2
2017-04-26T00:42:09.874Z,-1.2
2017-04-26T00:43:09.852Z,-1.11
2017-04-26T00:44:09.837Z,-1.18
2017-04-26T00:45:09.818Z,-1.15
2017-04-26T00:46:09.503Z,-1.13
2017-04-26T00:47:09.782Z,-1.08
2017-04-26T00:48:09.465Z,-1.15
2017-04-26T00:49:09.748Z,-1.21
2017-04-26T00:50:09.422Z,-1.18
2017-04-26T00:51:09.710Z,-1.32
2017-04-26T00:52:09.896Z,-1.2
2017-04-26T00:53:09.681Z,-1.08
2017-04-26T00:54:09.662Z,-1.11
2017-04-26T00:55:09.637Z,-1.1
2017-04-26T00:56:09.317Z,-1.07
2017-04-26T00:57:09.301Z,-1.13
2017-04-26T00:58:09.586Z,-1.03
2017-04-26T00:59:09.573Z,-1.08
2017-04-26T01:00:09.553Z,-1.11
2017-04-26T01:01:09.538Z,-1.14
2017-04-26T01:02:09.516Z,-1.11
2017-04-26T01:03:09.499Z,-1.13
2017-04-26T01:04:09.483Z,-1.25
2017-04-26T01:05:09.470Z,-1.18
2017-04-26T01:06:09.452Z,-1.32
2017-04-26T01:07:09.430Z,-1.23
2017-04-26T01:08:09.410Z,-1.13
2017-04-26T01:09:09.394Z,-1.18
2017-04-26T01:10:09.379Z,-1.13
2017-04-26T01:11:09.358Z,-1.21
2017-04-26T01:12:09.342Z,-1.17
2017-04-26T01:13:09.326Z,-1.25
2017-04-26T01:14:09.005Z,-1.25
2017-04-26T01:15:09.290Z,-1.17
2017-04-26T01:16:09.270Z,-1.25
2017-04-26T01:17:09.251Z,-1.33
2017-04-26T01:18:08.935Z,-1.25
2017-04-26T01:19:09.218Z,-1.26
2017-04-26T01:20:09.200Z,-1.29
2017-04-26T01:21:09.183Z,-1.25
2017-04-26T01:22:09.170Z,-1.28
2017-04-26T01:23:09.151Z,-1.07
2017-04-26T01:24:09.133Z,-1.23
2017-04-26T01:25:09.119Z,-1.26
2017-04-26T01:26:09.097Z,-1.14
2017-04-26T01:27:08.780Z,-1.28
2017-04-26T01:28:08.758Z,-1.32
2017-04-26T01:29:09.050Z,-1.25
2017-04-26T01:30:09.026Z,-1.29
2017-04-26T01:31:09.007Z,-1.21
2017-04-26T01:32:08.689Z,-1.2
2017-04-26T01:33:08.977Z,-1.23
2017-04-26T01:34:08.954Z,-1.18
2017-04-26T01:35:08.634Z,-1.23
2017-04-26T01:36:08.929Z,-1.23
2017-04-26T01:37:08.900Z,-1.33
2017-04-26T01:38:08.886Z,-1.35
2017-04-26T01:39:08.871Z,-1.35
2017-04-26T01:40:08.854Z,-1.26
2017-04-26T01:41:08.841Z,-1.35
2017-04-26T01:42:08.538Z,-1.31
2017-04-26T01:43:08.794Z,-1.25
2017-04-26T01:44:08.781Z,-1.28
2017-04-26T01:45:08.762Z,-1.25
2017-04-26T01:46:08.740Z,-1.2
2017-04-26T01:47:08.422Z,-1.31
2017-04-26T01:48:08.708Z,-1.33
2017-04-26T01:49:08.389Z,-1.32
2017-04-26T01:50:08.368Z,-1.33
2017-04-26T01:51:08.659Z,-1.31
2017-04-26T01:52:08.648Z,-1.36
2017-04-26T01:53:08.626Z,-1.26
2017-04-26T01:54:08.604Z,-1.44
2017-04-26T01:55:08.585Z,-1.29
2017-04-26T01:56:08.566Z,-1.25
2017-04-26T01:57:08.549Z,-1.23
2017-04-26T01:58:08.230Z,-1.35
2017-04-26T01:59:08.520Z,-1.33
2017-04-26T02:00:08.490Z,-1.29
2017-04-26T02:01:08.477Z,-1.33
2017-04-26T02:02:08.158Z,-1.33
2017-04-26T02:03:08.134Z,-1.31
2017-04-26T02:04:08.431Z,-1.33
2017-04-26T02:05:08.400Z,-1.36
2017-04-26T02:06:08.389Z,-1.28
2017-04-26T02:07:08.367Z,-1.31
2017-04-26T02:08:08.052Z,-1.36
2017-04-26T02:09:08.336Z,-1.31
2017-04-26T02:10:08.315Z,-1.36
2017-04-26T02:11:08.297Z,-1.36
2017-04-26T02:12:07.982Z,-1.44
2017-04-26T02:13:08.268Z,-1.46
2017-04-26T02:14:07.938Z,-1.39
2017-04-26T02:15:07.925Z,-1.46
2017-04-26T02:16:08.213Z,-1.43
2017-04-26T02:17:08.192Z,-1.46
2017-04-26T02:18:07.886Z,-1.28
2017-04-26T02:19:07.860Z,-1.38
2017-04-26T02:20:08.134Z,-1.39
2017-04-26T02:21:08.117Z,-1.33
2017-04-26T02:22:07.795Z,-1.39
2017-04-26T02:23:07.785Z,-1.28
2017-04-26T02:24:08.065Z,-1.31
2017-04-26T02:25:07.745Z,-1.31
2017-04-26T02:26:07.726Z,-1.32
2017-04-26T02:27:08.047Z,-1.41
2017-04-26T02:28:07.988Z,-1.51
2017-04-26T02:29:07.977Z,-1.43
2017-04-26T02:30:07.957Z,-1.39
2017-04-26T02:31:07.941Z,-1.36
2017-04-26T02:32:07.920Z,-1.31
2017-04-26T02:33:07.902Z,-1.36
2017-04-26T02:34:07.888Z,-1.32
2017-04-26T02:35:07.873Z,-1.41
2017-04-26T02:36:07.847Z,-1.39
2017-04-26T02:37:07.837Z,-1.46
2017-04-26T02:38:07.816Z,-1.43
2017-04-26T02:39:07.801Z,-1.41
2017-04-26T02:40:07.474Z,-1.5
2017-04-26T02:41:07.760Z,-1.54
2017-04-26T02:42:07.743Z,-1.51
2017-04-26T02:43:07.719Z,-1.65
2017-04-26T02:44:07.402Z,-1.61
2017-04-26T02:45:07.689Z,-1.56
2017-04-26T02:46:07.668Z,-1.62
2017-04-26T02:47:07.650Z,-1.62
2017-04-26T02:48:07.637Z,-1.51
2017-04-26T02:49:07.615Z,-1.61
2017-04-26T02:50:07.601Z,-1.57
2017-04-26T02:51:07.581Z,-1.53
2017-04-26T02:52:07.558Z,-1.49
2017-04-26T02:53:07.546Z,-1.61
2017-04-26T02:54:07.527Z,-1.65
2017-04-26T02:55:07.504Z,-1.65
2017-04-26T02:56:07.487Z,-1.65
2017-04-26T02:57:07.471Z,-1.7
2017-04-26T02:58:07.454Z,-1.78
2017-04-26T02:59:07.436Z,-1.67
2017-04-26T03:00:07.417Z,-1.62
2017-04-26T03:01:07.398Z,-1.67
2017-04-26T03:02:07.385Z,-1.68
2017-04-26T03:03:07.366Z,-1.54
2017-04-26T03:04:07.348Z,-1.62
2017-04-26T03:05:07.327Z,-1.57
2017-04-26T03:06:07.311Z,-1.7
2017-04-26T03:07:07.291Z,-1.68
2017-04-26T03:08:07.273Z,-1.5
2017-04-26T03:09:07.257Z,-1.43
2017-04-26T03:10:07.236Z,-1.44
2017-04-26T03:11:07.224Z,-1.53
2017-04-26T03:12:07.204Z,-1.72
2017-04-26T03:13:07.189Z,-1.77
2017-04-26T03:14:06.866Z,-1.86
2017-04-26T03:15:07.151Z,-1.68
2017-04-26T03:16:06.832Z,-1.8
2017-04-26T03:17:07.113Z,-1.88
2017-04-26T03:18:07.094Z,-1.75
2017-04-26T03:19:07.077Z,-1.78
2017-04-26T03:20:07.057Z,-1.64
2017-04-26T03:21:07.039Z,-1.68
2017-04-26T03:22:07.023Z,-1.71
2017-04-26T03:23:07.011Z,-1.7
2017-04-26T03:24:06.988Z,-1.77
2017-04-26T03:25:06.966Z,-1.68
2017-04-26T03:26:06.951Z,-1.67
2017-04-26T03:27:06.932Z,-1.71
2017-04-26T03:28:06.911Z,-1.67
2017-04-26T03:29:06.899Z,-1.8
2017-04-26T03:30:06.880Z,-1.75
2017-04-26T03:31:06.858Z,-1.71
2017-04-26T03:32:06.840Z,-1.65
2017-04-26T03:33:06.816Z,-1.85
2017-04-26T03:34:06.814Z,-1.85
2017-04-26T03:35:06.782Z,-1.86
2017-04-26T03:36:06.470Z,-1.85
2017-04-26T03:37:06.446Z,-1.78
2017-04-26T03:38:06.735Z,-1.88
2017-04-26T03:39:06.712Z,-1.89
2017-04-26T03:40:06.693Z,-1.86
2017-04-26T03:41:06.676Z,-1.71
2017-04-26T03:42:06.659Z,-1.72
2017-04-26T03:43:06.642Z,-1.65
2017-04-26T03:44:06.619Z,-1.78
2017-04-26T03:45:06.299Z,-1.77
2017-04-26T03:46:06.584Z,-1.8
2017-04-26T03:47:06.570Z,-1.78
2017-04-26T03:48:06.545Z,-1.78
2017-04-26T03:49:06.526Z,-1.89
2017-04-26T03:50:06.515Z,-1.86
2017-04-26T03:51:06.494Z,-1.75
2017-04-26T03:52:06.472Z,-1.82
2017-04-26T03:53:06.458Z,-1.88
2017-04-26T03:54:06.437Z,-1.89
2017-04-26T03:55:06.420Z,-1.88
2017-04-26T03:56:06.399Z,-1.74
2017-04-26T03:57:06.377Z,-1.77
2017-04-26T03:58:06.370Z,-1.74
2017-04-26T03:59:06.347Z,-1.67
2017-04-26T04:00:06.326Z,-1.68
2017-04-26T04:01:06.309Z,-1.67
2017-04-26T04:02:06.288Z,-1.86
2017-04-26T04:03:06.275Z,-1.77
2017-04-26T04:04:06.253Z,-1.78
2017-04-26T04:05:06.233Z,-1.74
2017-04-26T04:06:06.221Z,-1.85
2017-04-26T04:07:05.893Z,-1.89
2017-04-26T04:08:06.181Z,-1.92
2017-04-26T04:09:06.165Z,-1.77
2017-04-26T04:10:06.143Z,-1.71
2017-04-26T04:11:06.129Z,-1.71
2017-04-26T04:12:06.104Z,-1.65
2017-04-26T04:13:06.091Z,-1.68
2017-04-26T04:14:06.073Z,-1.75
2017-04-26T04:15:06.085Z,-1.71
2017-04-26T04:16:06.033Z,-1.72
2017-04-26T04:17:06.051Z,-1.57
2017-04-26T04:18:05.995Z,-1.56
2017-04-26T04:19:05.978Z,-1.62
2017-04-26T04:20:05.964Z,-1.51
2017-04-26T04:21:05.941Z,-1.5
2017-04-26T04:22:05.924Z,-1.49
2017-04-26T04:23:05.905Z,-1.71
2017-04-26T04:24:05.882Z,-1.72
2017-04-26T04:25:05.572Z,-1.68
2017-04-26T04:26:05.847Z,-1.61
2017-04-26T04:27:05.835Z,-1.64
2017-04-26T04:28:05.814Z,-1.61
2017-04-26T04:29:05.792Z,-1.57
2017-04-26T04:30:05.777Z,-1.46
2017-04-26T04:31:05.760Z,-1.39
2017-04-26T04:32:05.737Z,-1.41
2017-04-26T04:33:05.753Z,-1.53
2017-04-26T04:34:05.703Z,-1.68
2017-04-26T04:35:05.385Z,-1.62
2017-04-26T04:36:05.672Z,-1.62
2017-04-26T04:37:05.651Z,-1.68
2017-04-26T04:38:05.638Z,-1.65
2017-04-26T04:39:05.623Z,-1.62
2017-04-26T04:40:05.597Z,-1.67
2017-04-26T04:41:05.277Z,-1.83
2017-04-26T04:42:05.559Z,-1.9
2017-04-26T04:43:05.543Z,-1.88
2017-04-26T04:44:05.526Z,-1.74
2017-04-26T04:45:05.505Z,-1.65
2017-04-26T04:46:05.487Z,-1.67
2017-04-26T04:47:05.472Z,-1.8
2017-04-26T04:48:05.452Z,-1.83
2017-04-26T04:49:05.433Z,-1.8
2017-04-26T04:50:05.132Z,-1.77
2017-04-26T04:51:05.397Z,-1.83
2017-04-26T04:52:05.379Z,-1.75
2017-04-26T04:53:05.364Z,-1.82
2017-04-26T04:54:05.347Z,-2.06
2017-04-26T04:55:05.333Z,-1.89
2017-04-26T04:56:05.313Z,-1.85
2017-04-26T04:57:05.291Z,-1.82
2017-04-26T04:58:05.280Z,-1.71
2017-04-26T04:59:05.249Z,-1.64
2017-04-26T05:00:05.236Z,-1.7
2017-04-26T05:01:05.217Z,-1.78
2017-04-26T05:02:05.205Z,-1.95
2017-04-26T05:03:05.183Z,-1.8
2017-04-26T05:04:04.862Z,-1.78
2017-04-26T05:05:05.146Z,-1.8
2017-04-26T05:06:04.826Z,-1.88
2017-04-26T05:07:05.104Z,-1.85
2017-04-26T05:08:05.092Z,-1.75
2017-04-26T05:09:05.074Z,-1.86
2017-04-26T05:10:04.755Z,-1.64
2017-04-26T05:11:05.032Z,-1.64
2017-04-26T05:12:05.017Z,-1.86
2017-04-26T05:13:04.996Z,-1.83
2017-04-26T05:14:04.981Z,-1.88
2017-04-26T05:15:04.960Z,-1.74
2017-04-26T05:16:04.946Z,-1.8
2017-04-26T05:17:04.928Z,-1.92
2017-04-26T05:18:04.910Z,-1.75
2017-04-26T05:19:04.894Z,-1.77
2017-04-26T05:20:04.875Z,-1.7
2017-04-26T05:21:04.854Z,-1.64
2017-04-26T05:22:04.533Z,-1.64
2017-04-26T05:23:04.515Z,-1.53
2017-04-26T05:24:04.804Z,-1.44
2017-04-26T05:25:04.785Z,-1.5
2017-04-26T05:26:04.767Z,-1.5
2017-04-26T05:27:04.751Z,-1.54
2017-04-26T05:28:04.732Z,-1.56
2017-04-26T05:29:04.711Z,-1.39
2017-04-26T05:30:04.697Z,-1.31
2017-04-26T05:31:04.676Z,-1.57
2017-04-26T05:32:04.656Z,-1.62
2017-04-26T05:33:04.641Z,-1.71
2017-04-26T05:34:04.633Z,-1.83
2017-04-26T05:35:04.604Z,-1.86
2017-04-26T05:36:04.289Z,-1.83
2017-04-26T05:37:04.575Z,-1.62
2017-04-26T05:38:04.559Z,-1.62
2017-04-26T05:39:04.533Z,-1.54
2017-04-26T05:40:04.521Z,-1.62
2017-04-26T05:41:04.509Z,-1.74
2017-04-26T05:42:04.481Z,-1.68
2017-04-26T05:43:04.463Z,-1.59
2017-04-26T05:44:04.449Z,-1.47
2017-04-26T05:45:04.129Z,-1.61
2017-04-26T05:46:04.413Z,-1.62
2017-04-26T05:47:04.393Z,-1.7
2017-04-26T05:48:04.379Z,-1.65
2017-04-26T05:49:04.364Z,-1.7
2017-04-26T05:50:04.342Z,-1.59
2017-04-26T05:51:04.321Z,-1.5
2017-04-26T05:52:04.301Z,-1.44
2017-04-26T05:53:04.293Z,-1.46
2017-04-26T05:54:04.271Z,-1.62
2017-04-26T05:55:04.251Z,-1.41
2017-04-26T05:56:04.234Z,-1.57
2017-04-26T05:57:04.213Z,-1.62
2017-04-26T05:58:04.202Z,-1.61
2017-04-26T05:59:04.180Z,-1.53
2017-04-26T06:00:03.859Z,-1.77
2017-04-26T06:01:04.144Z,-1.64
2017-04-26T06:02:04.125Z,-1.65
2017-04-26T06:03:04.115Z,-1.46
2017-04-26T06:04:04.090Z,-1.59
2017-04-26T06:05:04.073Z,-1.67
2017-04-26T06:06:04.053Z,-1.82
2017-04-26T06:07:04.037Z,-1.68
2017-04-26T06:08:04.039Z,-1.64
2017-04-26T06:09:03.997Z,-1.67
2017-04-26T06:10:03.988Z,-1.75
2017-04-26T06:11:03.965Z,-1.83
2017-04-26T06:12:03.948Z,-1.68
2017-04-26T06:13:03.931Z,-1.72
2017-04-26T06:14:03.911Z,-1.67
2017-04-26T06:15:03.890Z,-1.68
2017-04-26T06:16:03.877Z,-1.68
2017-04-26T06:17:03.553Z,-1.49
2017-04-26T06:18:03.835Z,-1.51
2017-04-26T06:19:03.821Z,-1.39
2017-04-26T06:20:03.800Z,-1.43
2017-04-26T06:21:03.785Z,-1.44
2017-04-26T06:22:03.469Z,-1.46
2017-04-26T06:23:03.752Z,-1.33
2017-04-26T06:24:03.734Z,-1.29
2017-04-26T06:25:03.714Z,-1.32
2017-04-26T06:26:03.389Z,-1.32
2017-04-26T06:27:03.672Z,-1.32
2017-04-26T06:28:03.660Z,-1.25
2017-04-26T06:29:03.637Z,-1.18
2017-04-26T06:30:03.628Z,-1.18
2017-04-26T06:31:03.604Z,-1.23
2017-04-26T06:32:03.586Z,-1.31
2017-04-26T06:33:03.567Z,-1.35
2017-04-26T06:34:03.560Z,-1.38
2017-04-26T06:35:03.539Z,-1.44
2017-04-26T06:36:03.515Z,-1.32
2017-04-26T06:37:03.497Z,-1.31
2017-04-26T06:38:03.176Z,-1.2
2017-04-26T06:39:03.511Z,-1.31
2017-04-26T06:40:03.140Z,-1.39
2017-04-26T06:41:03.124Z,-1.41
2017-04-26T06:42:03.405Z,-1.46
2017-04-26T06:43:03.387Z,-1.29
2017-04-26T06:44:03.386Z,-1.29
2017-04-26T06:45:03.056Z,-1.35
2017-04-26T06:46:03.337Z,-1.36
2017-04-26T06:47:03.322Z,-1.49
2017-04-26T06:48:03.297Z,-1.51
2017-04-26T06:49:03.281Z,-1.51
2017-04-26T06:50:02.965Z,-1.41
2017-04-26T06:51:03.251Z,-1.39
2017-04-26T06:52:03.237Z,-1.51
2017-04-26T06:53:03.210Z,-1.64
2017-04-26T06:54:03.195Z,-1.53
2017-04-26T06:55:03.177Z,-1.57
2017-04-26T06:56:03.164Z,-1.62
2017-04-26T06:57:03.137Z,-1.38
2017-04-26T06:58:03.123Z,-1.15
2017-04-26T06:59:03.108Z,-1.13
2017-04-26T07:00:03.088Z,-1.1
2017-04-26T07:01:03.065Z,-0.81
2017-04-26T07:02:03.048Z,-0.78
2017-04-26T07:03:03.031Z,-0.53
2017-04-26T07:04:03.014Z,-0.41
2017-04-26T07:05:02.698Z,-0.12
2017-04-26T07:06:02.983Z,-0.41
2017-04-26T07:07:02.969Z,-0.45
2017-04-26T07:08:02.946Z,-0.37
2017-04-26T07:09:02.635Z,-0.53
2017-04-26T07:10:02.613Z,-0.31
2017-04-26T07:11:02.595Z,-0.27
2017-04-26T07:12:02.893Z,-0.09
2017-04-26T07:13:02.863Z,0.15
2017-04-26T07:14:02.858Z,0.13
2017-04-26T07:15:02.832Z,-0.16
2017-04-26T07:16:02.817Z,-0.5
2017-04-26T07:17:02.797Z,-0.55
2017-04-26T07:18:02.785Z,-0.73
2017-04-26T07:19:02.781Z,-0.83
2017-04-26T07:20:02.753Z,-0.83
2017-04-26T07:21:02.737Z,-0.53
2017-04-26T07:22:02.720Z,-0.52
2017-04-26T07:23:02.708Z,-0.71
2017-04-26T07:24:02.687Z,-0.74
2017-04-26T07:25:02.672Z,-0.39
2017-04-26T07:26:02.652Z,-0.21
2017-04-26T07:27:02.643Z,-0.27
2017-04-26T07:28:02.621Z,-0.76
2017-04-26T07:29:02.615Z,-1.14
2017-04-26T07:30:02.594Z,-0.77
2017-04-26T07:31:02.581Z,-0.67
2017-04-26T07:32:02.560Z,-0.62
2017-04-26T07:33:02.544Z,-0.44
2017-04-26T07:34:02.527Z,-0.27
2017-04-26T07:35:02.513Z,-0.42
2017-04-26T07:36:02.192Z,-0.14
2017-04-26T07:37:02.472Z,-0.06
2017-04-26T07:38:02.467Z,0.07
2017-04-26T07:39:02.447Z,0.12
2017-04-26T07:40:02.434Z,0.35
2017-04-26T07:41:02.408Z,0.19
2017-04-26T07:42:02.398Z,0.07
2017-04-26T07:43:02.379Z,0.2
2017-04-26T07:44:02.360Z,0.17
2017-04-26T07:45:02.347Z,0.22
2017-04-26T07:46:02.331Z,0.33
2017-04-26T07:47:02.318Z,0.33
2017-04-26T07:48:02.294Z,0.4
2017-04-26T07:49:02.290Z,0.77
2017-04-26T07:50:02.266Z,0.64
2017-04-26T07:51:02.257Z,0.15
2017-04-26T07:52:02.237Z,-0.39
2017-04-26T07:53:02.223Z,-0.34
2017-04-26T07:54:02.202Z,-0.44
2017-04-26T07:55:01.885Z,-0.52
2017-04-26T07:56:02.170Z,-0.77
2017-04-26T07:57:02.154Z,-0.35
2017-04-26T07:58:02.140Z,0.34
2017-04-26T07:59:02.120Z,0.17
2017-04-26T08:00:02.110Z,0.49
2017-04-26T08:01:02.088Z,0.86
2017-04-26T08:02:02.072Z,1.39
2017-04-26T08:03:01.753Z,1.43
2017-04-26T08:04:02.042Z,1.67
2017-04-26T08:05:02.023Z,2.19
2017-04-26T08:06:02.009Z,2.5
2017-04-26T08:07:01.993Z,2.71
2017-04-26T08:08:01.978Z,2.47
2017-04-26T08:09:01.964Z,2.19
2017-04-26T08:10:01.949Z,1.57
2017-04-26T08:11:01.936Z,1.79
2017-04-26T08:12:01.914Z,1.93
2017-04-26T08:13:01.904Z,2.14
2017-04-26T08:14:01.893Z,2.12
2017-04-26T08:15:01.874Z,1.36
2017-04-26T08:16:01.859Z,1.07
2017-04-26T08:17:01.847Z,0.6
2017-04-26T08:18:01.827Z,0.49
2017-04-26T08:19:01.814Z,0.35
2017-04-26T08:20:01.799Z,0.19
2017-04-26T08:21:01.780Z,0.33
2017-04-26T08:22:01.764Z,0.26
2017-04-26T08:23:01.752Z,0.45
2017-04-26T08:24:01.743Z,0.71
2017-04-26T08:25:01.721Z,0.7
2017-04-26T08:26:01.701Z,0.92
2017-04-26T08:27:01.694Z,1.17
2017-04-26T08:28:01.673Z,1.02
2017-04-26T08:29:01.355Z,1.43
2017-04-26T08:30:01.641Z,1.04
2017-04-26T08:31:01.623Z,1.18
2017-04-26T08:32:01.613Z,1.26
2017-04-26T08:33:01.599Z,1.04
2017-04-26T08:34:01.582Z,0.48
2017-04-26T08:35:01.565Z,0.6
2017-04-26T08:36:01.563Z,0.37
2017-04-26T08:37:01.236Z,0.92
2017-04-26T08:38:01.514Z,0.78
2017-04-26T08:39:01.496Z,1.06
2017-04-26T08:40:01.484Z,1.1
2017-04-26T08:41:01.172Z,0.96
2017-04-26T08:42:01.476Z,0.62
2017-04-26T08:43:01.439Z,-0.12
2017-04-26T08:44:01.420Z,-0.14
2017-04-26T08:45:01.408Z,0.1
2017-04-26T08:46:01.392Z,0.1
2017-04-26T08:47:01.370Z,-0.05
2017-04-26T08:48:01.358Z,-0.16
2017-04-26T08:49:01.343Z,0.12
2017-04-26T08:50:01.329Z,0.17
2017-04-26T08:51:01.309Z,0.26
2017-04-26T08:52:01.296Z,0.49
2017-04-26T08:53:01.279Z,0.77
2017-04-26T08:54:01.273Z,1.08
2017-04-26T08:55:00.944Z,1.17
2017-04-26T08:56:01.229Z,0.75
2017-04-26T08:57:01.213Z,0.92
2017-04-26T08:58:01.202Z,0.98
2017-04-26T08:59:01.181Z,0.99
2017-04-26T09:00:01.170Z,0.72
2017-04-26T09:01:01.152Z,0.84
2017-04-26T09:02:01.152Z,0.9
2017-04-26T09:03:01.125Z,1.31
2017-04-26T09:04:01.104Z,1.57
2017-04-26T09:05:01.093Z,1.68
2017-04-26T09:06:01.076Z,1.9
2017-04-26T09:07:01.063Z,1.65
2017-04-26T09:08:01.060Z,1.74
2017-04-26T09:09:01.040Z,1.7
2017-04-26T09:10:01.016Z,1.63
2017-04-26T09:11:01.001Z,1.29
2017-04-26T09:12:00.984Z,0.93
2017-04-26T09:13:00.987Z,1
2017-04-26T09:14:00.958Z,0.93
2017-04-26T09:15:00.940Z,0.84
2017-04-26T09:16:00.927Z,1.07
2017-04-26T09:17:00.925Z,1.04
2017-04-26T09:18:00.898Z,1.28
2017-04-26T09:19:00.891Z,1.2
2017-04-26T09:20:00.880Z,1.17
2017-04-26T09:21:00.861Z,1.14
2017-04-26T09:22:00.854Z,1.31
2017-04-26T09:23:00.819Z,1.5
2017-04-26T09:24:00.812Z,1.71
2017-04-26T09:25:00.789Z,2.19
2017-04-26T09:26:00.778Z,2.63
2017-04-26T09:27:00.760Z,2.83
2017-04-26T09:28:00.749Z,2.5
2017-04-26T09:29:00.733Z,1.65
2017-04-26T09:30:00.715Z,0.62
2017-04-26T09:31:00.706Z,0.43
2017-04-26T09:32:00.691Z,0.34
2017-04-26T09:33:00.677Z,0.48
2017-04-26T09:34:00.665Z,0.81
2017-04-26T09:35:00.646Z,1.26
2017-04-26T09:36:00.631Z,1.77
2017-04-26T09:37:00.618Z,2.44
2017-04-26T09:38:00.598Z,2.22
2017-04-26T09:39:00.586Z,2.36
2017-04-26T09:40:00.574Z,2.29
2017-04-26T09:41:00.560Z,2.62
2017-04-26T09:42:00.558Z,2.51
2017-04-26T09:43:00.528Z,1.81
2017-04-26T09:43:59.909Z,1.39
2017-04-26T09:45:00.502Z,1.11
2017-04-26T09:46:00.488Z,0.81
2017-04-26T09:47:00.480Z,0.71
2017-04-26T09:48:00.454Z,-0.16
2017-04-26T09:49:00.440Z,-0.35
2017-04-26T09:50:00.429Z,-0.3
2017-04-26T09:51:00.432Z,-0.02
2017-04-26T09:52:00.395Z,0.45
2017-04-26T09:53:00.383Z,0.49
2017-04-26T09:54:00.370Z,0.52
2017-04-26T09:55:00.050Z,1.02
2017-04-26T09:56:00.335Z,1.2
2017-04-26T09:57:00.021Z,1.32
2017-04-26T09:58:00.311Z,1.28
2017-04-26T09:58:59.992Z,1.71
2017-04-26T09:59:59.978Z,2.02
2017-04-26T10:00:59.966Z,1.35
2017-04-26T10:01:59.951Z,0.37
2017-04-26T10:03:00.231Z,0.22
2017-04-26T10:04:00.220Z,0.15
2017-04-26T10:05:00.208Z,0.2
2017-04-26T10:06:00.189Z,0.89
2017-04-26T10:07:00.176Z,1.08
2017-04-26T10:08:00.162Z,1.11
2017-04-26T10:09:00.145Z,1.17
2017-04-26T10:10:00.133Z,1.38
2017-04-26T10:11:00.116Z,1.42
2017-04-26T10:12:00.100Z,1.68
2017-04-26T10:13:00.090Z,1.63
2017-04-26T10:14:19.577Z,1.52
2017-04-26T10:15:40.236Z,1.6
2017-04-26T10:16:40.213Z,1.86
2017-04-26T10:17:40.198Z,1.95
2017-04-26T10:18:40.179Z,1.81
2017-04-26T10:19:40.165Z,1.83
2017-04-26T10:20:40.155Z,1.85
2017-04-26T10:21:40.137Z,1.57
2017-04-26T10:22:40.124Z,1.36
2017-04-26T10:23:40.111Z,1.18
2017-04-26T10:24:40.097Z,1.26
2017-04-26T10:25:40.082Z,1.53
2017-04-26T10:26:40.066Z,1.26
2017-04-26T10:27:39.753Z,1.13
2017-04-26T10:29:03.970Z,1.39
2017-04-26T10:29:40.024Z,1.13
2017-04-26T10:31:08.619Z,1.06
2017-04-26T10:31:48.056Z,0.9
2017-04-26T10:32:39.981Z,0.63
2017-04-26T10:33:39.967Z,0.64
2017-04-26T10:34:39.749Z,0.26
2017-04-26T10:35:39.941Z,0.71
2017-04-26T10:36:40.125Z,0.96
2017-04-26T10:37:39.903Z,1
2017-04-26T10:38:39.891Z,1.07
2017-04-26T10:39:39.877Z,0.56
2017-04-26T10:40:39.863Z,0.19
2017-04-26T10:41:54.461Z,-0.01
2017-04-26T10:42:48.971Z,-0.31
2017-04-26T10:43:39.815Z,-0.26
2017-04-26T10:44:39.800Z,-0.09
2017-04-26T10:45:39.787Z,-0.14
2017-04-26T10:46:39.770Z,0.12
2017-04-26T10:47:39.756Z,0.13
2017-04-26T10:48:39.739Z,0.05
2017-04-26T10:49:39.724Z,0.2
2017-04-26T10:50:39.710Z,0.19
2017-04-26T10:51:39.693Z,0.33
2017-04-26T10:52:39.679Z,0.17
2017-04-26T10:53:39.667Z,0.62
2017-04-26T10:54:39.653Z,0.88
2017-04-26T10:55:39.692Z,0.49
2017-04-26T10:56:39.656Z,-0.16
2017-04-26T10:57:39.343Z,-0.52
2017-04-26T10:58:39.587Z,-0.32
2017-04-26T10:59:39.576Z,-0.03
2017-04-26T11:00:39.607Z,0.33
2017-04-26T11:01:39.592Z,0.49
2017-04-26T11:02:39.521Z,0.74
2017-04-26T11:03:39.514Z,1.11
2017-04-26T11:04:39.489Z,1.16
2017-04-26T11:05:39.485Z,1.44
2017-04-26T11:06:39.461Z,1.54
2017-04-26T11:07:39.449Z,1.31
2017-04-26T11:08:39.430Z,1.38
2017-04-26T11:09:39.417Z,1.29
2017-04-26T11:10:39.404Z,1.35
2017-04-26T11:11:39.394Z,1.56
2017-04-26T11:12:39.371Z,1.44
2017-04-26T11:13:39.357Z,1.36
2017-04-26T11:14:39.347Z,1.07
2017-04-26T11:15:39.324Z,1.38
2017-04-26T11:16:39.310Z,1.43
2017-04-26T11:17:39.298Z,1.11
2017-04-26T11:18:39.283Z,1.14
2017-04-26T11:19:39.267Z,0.82
2017-04-26T11:20:39.259Z,0.92
2017-04-26T11:21:39.242Z,1.06
2017-04-26T11:22:39.226Z,1.16
2017-04-26T11:23:39.211Z,1.31
2017-04-26T11:24:39.194Z,1.35
2017-04-26T11:25:39.184Z,1.63
2017-04-26T11:26:39.167Z,1.81
2017-04-26T11:27:39.155Z,1.98
2017-04-26T11:28:39.139Z,2.09
2017-04-26T11:29:39.131Z,2.26
2017-04-26T11:30:39.111Z,2.74
2017-04-26T11:31:39.100Z,2.02
2017-04-26T11:32:39.086Z,1.53
2017-04-26T11:33:39.069Z,1.57
2017-04-26T11:34:38.763Z,1.52
2017-04-26T11:35:39.041Z,1.17
2017-04-26T11:36:39.030Z,1.42
2017-04-26T11:37:39.017Z,1.28
2017-04-26T11:38:39.001Z,1.52
2017-04-26T11:39:38.986Z,1.79
2017-04-26T11:40:38.974Z,2.15
2017-04-26T11:41:38.955Z,2.38
2017-04-26T11:42:38.947Z,2.33
2017-04-26T11:43:38.928Z,1.46
2017-04-26T11:44:38.918Z,1.14
2017-04-26T11:45:38.907Z,0.63
2017-04-26T11:46:38.888Z,0.88
2017-04-26T11:47:38.874Z,1.1
2017-04-26T11:48:38.857Z,1.2
2017-04-26T11:49:38.847Z,1.21
2017-04-26T11:50:38.833Z,1.25
2017-04-26T11:51:38.826Z,1.07
2017-04-26T11:52:38.803Z,1.1
2017-04-26T11:53:38.790Z,1.04
2017-04-26T11:54:38.775Z,1.16
2017-04-26T11:55:38.760Z,0.81
2017-04-26T11:56:38.745Z,1.11
2017-04-26T11:57:38.728Z,1.1
2017-04-26T11:58:38.716Z,1.21
2017-04-26T11:59:38.700Z,1.28
2017-04-26T12:00:38.697Z,1.32
2017-04-26T12:01:38.669Z,1.36
2017-04-26T12:02:38.658Z,1.36
2017-04-26T12:03:38.646Z,1.47
2017-04-26T12:04:38.633Z,1.57
2017-04-26T12:05:38.613Z,1.6
2017-04-26T12:06:38.599Z,1.36
2017-04-26T12:07:38.285Z,1.52
2017-04-26T12:08:38.576Z,1.25
2017-04-26T12:09:38.560Z,1.43
2017-04-26T12:10:38.542Z,1.61
2017-04-26T12:11:38.542Z,1.92
2017-04-26T12:12:38.518Z,1.63
2017-04-26T12:13:38.504Z,1.81
2017-04-26T12:14:38.496Z,1.67
2017-04-26T12:15:38.473Z,1.46
2017-04-26T12:16:38.464Z,1.82
2017-04-26T12:17:38.447Z,1.89
2017-04-26T12:18:38.430Z,1.88
2017-04-26T12:19:38.415Z,1.83
2017-04-26T12:20:38.404Z,1.81
2017-04-26T12:21:38.389Z,1.92
2017-04-26T12:22:38.377Z,2.02
2017-04-26T12:23:38.392Z,1.89
2017-04-26T12:24:38.056Z,1.46
2017-04-26T12:25:38.046Z,1.49
2017-04-26T12:26:38.319Z,1.54
2017-04-26T12:27:38.306Z,1.44
2017-04-26T12:28:38.291Z,1.31
2017-04-26T12:29:38.278Z,1.47
2017-04-26T12:30:38.265Z,1.49
2017-04-26T12:31:38.248Z,1.43
2017-04-26T12:32:38.237Z,1.18
2017-04-26T12:33:38.224Z,1.2
2017-04-26T12:34:38.207Z,1.25
2017-04-26T12:35:38.190Z,1.49
2017-04-26T12:36:38.184Z,1.63
2017-04-26T12:37:38.161Z,1.82
2017-04-26T12:38:38.145Z,1.92
2017-04-26T12:39:38.134Z,1.86
2017-04-26T12:40:38.122Z,1.63
2017-04-26T12:41:38.099Z,1.49
2017-04-26T12:42:38.089Z,1.32
2017-04-26T12:43:37.774Z,1.31
2017-04-26T12:44:38.073Z,1.42
2017-04-26T12:45:38.053Z,1.39
2017-04-26T12:46:38.043Z,1.35
2017-04-26T12:47:38.041Z,1.24
2017-04-26T12:48:38.045Z,1.28
2017-04-26T12:49:38.001Z,1.28
2017-04-26T12:50:37.974Z,1.56
2017-04-26T12:51:37.957Z,1.71
2017-04-26T12:52:37.940Z,1.6
2017-04-26T12:53:37.925Z,1.81
2017-04-26T12:54:37.914Z,2
2017-04-26T12:55:37.900Z,1.7
2017-04-26T12:56:37.880Z,1.92
2017-04-26T12:57:37.866Z,2.02
2017-04-26T12:58:37.853Z,1.92
2017-04-26T12:59:37.539Z,1.92
2017-04-26T13:00:37.826Z,2.09
2017-04-26T13:01:37.848Z,2.32
2017-04-26T13:02:37.797Z,2.5
2017-04-26T13:03:37.783Z,2.4
2017-04-26T13:04:37.763Z,2.29
2017-04-26T13:05:37.755Z,2.36